Pulpca — PHMT — position and weather

sailwx.info

Track history (hours):
 
Tides and Currents Weather Stations Pressure Air Temp Water Temp Dewpoint Dewpoint Depression Visibility Wind Speed Wind Dir Waves Ship Positions

Pulpca

Last reported at 2016-Dec-04 13:33 UTC. Time now 2016-Dec-04 14:16 UTC.
Position N 53°57' E 009°14'.

Length 205 m; draft 7.5 m.

Type: Ship (hazmat cat D). MMSI: 245097000.

Date/timePositionNaut miles runAvg speedWind from/ knotsBaromVisibWave heightAir tempDewpointWater temp
2016-Dec-04 13:33N 53°57' E 009°14'3 3.4
2016-Dec-04 12:33N 53°54' E 009°10'3 2.6
2016-Dec-04 11:33N 53°53' E 009°06'4 3.8
2016-Dec-04 10:34N 53°51' E 009°00'1313.4
2016-Dec-04 09:33N 53°56' E 008°39'1716.9
2016-Dec-04 08:33N 53°60' E 008°11'10019.6
2016-Dec-04 03:26N 53°34' E 005°27'1719.0
2016-Dec-04 02:33N 53°28' E 005°01'1918.5
2016-Dec-04 01:33N 53°16' E 004°38'2019.6
2016-Dec-04 00:33N 52°59' E 004°22'1919.3
2016-Dec-03 23:33N 52°43' E 004°03'1919.3
2016-Dec-03 22:33N 52°29' E 003°41'3919.2
2016-Dec-03 20:30N 51°52' E 003°20'1516.0
2016-Dec-03 19:33N 51°38' E 003°10'1413.7
2016-Dec-03 18:33N 51°24' E 003°09'1919.2
2016-Dec-03 17:34N 51°26' E 003°39'1313.4
2016-Dec-03 16:33N 51°26' E 004°01'1211.6
2016-Dec-03 15:33N 51°20' E 004°16'3 2.7
2016-Dec-03 14:28N 51°17' E 004°15'0 0.0
2016-Dec-03 13:31N 51°17' E 004°15'2 1.7
2016-Dec-03 12:31N 51°15' E 004°14'0 0.0
2016-Dec-03 11:31N 51°15' E 004°14'0 0.0
2016-Dec-03 10:31N 51°15' E 004°14'0 0.0
2016-Dec-03 09:31N 51°15' E 004°14'0 0.0
2016-Dec-03 08:31N 51°15' E 004°14'0 0.0
2016-Dec-03 07:31N 51°15' E 004°14'0 0.0
2016-Dec-03 06:31N 51°15' E 004°14'0 0.0
2016-Dec-03 05:33N 51°15' E 004°14'2 1.8
2016-Dec-03 04:34N 51°16' E 004°17'6 6.0
2016-Dec-03 03:34N 51°22' E 004°14'1312.7
2016-Dec-03 02:33N 51°21' E 003°53'1919.1
2016-Dec-03 01:34N 51°25' E 003°23'1312.8
2016-Dec-03 00:33N 51°31' E 003°05'2222.1
2016-Dec-02 23:33N 51°52' E 003°16'22119.2
2016-Dec-02 12:04N 54°00' E 008°16'1018.9
2016-Dec-02 11:33N 53°58' E 008°31'1616.2
2016-Dec-02 10:34N 53°51' E 008°56'8 8.2
2016-Dec-02 09:33N 53°54' E 009°09'2 2.5
2016-Dec-02 08:33N 53°55' E 009°12'8 7.7
2016-Dec-02 07:33N 54°02' E 009°18'7 7.4
2016-Dec-02 06:33N 54°09' E 009°22'7 6.6
2016-Dec-02 05:28N 54°12' E 009°33'6 6.3
2016-Dec-02 04:31N 54°17' E 009°39'7 7.5
2016-Dec-02 03:33N 54°22' E 009°48'6 5.8
2016-Dec-02 02:33N 54°21' E 009°58'6 5.9
2016-Dec-02 01:33N 54°22' E 010°08'1 1.1
2016-Dec-02 00:33N 54°22' E 010°10'9 9.2
2016-Dec-01 23:33N 54°30' E 010°17'1212.3
2016-Dec-01 22:33N 54°35' E 010°37'1211.6
2016-Dec-01 21:33N 54°36' E 010°57'1110.6
2016-Dec-01 20:33N 54°35' E 011°15'1111.1
2016-Dec-01 19:33N 54°30' E 011°32'1211.4
2016-Dec-01 18:32N 54°27' E 011°52'1110.8
2016-Dec-01 17:33N 54°28' E 012°10'2712.8
2016-Dec-01 15:28N 54°51' E 012°32'1213.4
2016-Dec-01 14:33N 55°03' E 012°37'1413.9
2016-Dec-01 13:33N 55°17' E 012°37'1313.4
2016-Dec-01 12:33N 55°30' E 012°41'1312.8
2016-Dec-01 11:34N 55°43' E 012°41'1413.9
2016-Dec-01 10:34N 55°57' E 012°43'3 3.0
2016-Dec-01 09:33N 55°60' E 012°42'1212.1
2016-Dec-01 08:33N 55°48' E 012°43'1111.0
2016-Dec-01 07:33N 55°37' E 012°42'1313.3
2016-Dec-01 06:34N 55°23' E 012°41'1413.7
2016-Dec-01 05:33N 55°15' E 013°01'1817.1
2016-Dec-01 04:32N 55°13' E 013°31'1616.7
2016-Dec-01 03:33N 55°13' E 013°60'1615.9
2016-Dec-01 02:33N 55°19' E 014°25'1717.2
2016-Dec-01 01:33N 55°31' E 014°48'1717.3
2016-Dec-01 00:33N 55°39' E 015°14'  
2016-Nov-28 19:21N 59°39' E 022°53'6 0.7
2016-Nov-28 10:33N 59°41' E 023°05'34517.3
2016-Nov-27 14:33N 55°38' E 015°28'2120.6
2016-Nov-27 13:33N 55°28' E 014°56'2020.0
2016-Nov-27 12:33N 55°16' E 014°28'2019.7
2016-Nov-27 11:33N 55°11' E 013°54'3121.2
2016-Nov-27 10:05N 55°14' E 013°00'1120.3
2016-Nov-27 09:33N 55°17' E 012°42'1616.0
2016-Nov-27 08:34N 55°33' E 012°42'1515.3
2016-Nov-27 07:33N 55°48' E 012°44'2121.1
2016-Nov-27 06:33N 56°08' E 012°30'5021.6
2016-Nov-27 04:15N 56°52' E 011°46'1522.1
2016-Nov-27 03:33N 57°06' E 011°39'2222.0
2016-Nov-27 02:33N 57°27' E 011°24'2222.0
2016-Nov-27 01:33N 57°42' E 010°54'2221.3
2016-Nov-27 00:33N 57°45' E 010°14'17818.8
2016-Nov-26 15:04N 55°32' E 006°38'8120.7
2016-Nov-26 11:10N 54°23' E 005°26'1320.9
2016-Nov-26 10:33N 54°12' E 005°15'2120.8
2016-Nov-26 09:33N 53°53' E 005°01'2120.4
2016-Nov-26 08:33N 53°34' E 004°49'2020.1
2016-Nov-26 07:33N 53°15' E 004°35'2019.9
2016-Nov-26 06:34N 52°58' E 004°19'2019.7
2016-Nov-26 05:33N 52°42' E 004°00'2020.0
2016-Nov-26 04:33N 52°26' E 003°39'2020.4
2016-Nov-26 03:33N 52°08' E 003°26'2120.8
2016-Nov-26 02:33N 51°48' E 003°16'2020.5
2016-Nov-26 01:33N 51°29' E 003°03'1414.0
2016-Nov-26 00:33N 51°25' E 003°24'1717.3
2016-Nov-25 23:33N 51°21' E 003°51'10 9.7
2016-Nov-25 22:33N 51°22' E 004°06'7 7.4
2016-Nov-25 21:34N 51°17' E 004°15'2 2.1
2016-Nov-25 20:33N 51°15' E 004°14'0 0.2
2016-Nov-25 19:32N 51°15' E 004°14'0 0.0
2016-Nov-25 18:32N 51°15' E 004°14'0 0.0
2016-Nov-25 17:32N 51°15' E 004°14'0 0.0
2016-Nov-25 16:32N 51°15' E 004°14'0 0.0
2016-Nov-25 15:32N 51°15' E 004°14'0 0.0
2016-Nov-25 14:32N 51°15' E 004°14'0 0.0
2016-Nov-25 13:32N 51°15' E 004°14'0 0.0
2016-Nov-25 12:32N 51°15' E 004°14'0 0.0
2016-Nov-25 11:32N 51°15' E 004°14'0 0.0
2016-Nov-25 09:30N 51°15' E 004°14'0 0.0
2016-Nov-25 08:33N 51°15' E 004°14'0 0.0
2016-Nov-25 07:33N 51°15' E 004°14'0 0.0
2016-Nov-25 06:33N 51°15' E 004°14'0 0.0
2016-Nov-25 05:33N 51°15' E 004°14'0 0.0
2016-Nov-25 04:33N 51°15' E 004°14'0 0.0
2016-Nov-25 03:33N 51°15' E 004°14'0 0.0
2016-Nov-25 02:33N 51°15' E 004°14'0 0.0
2016-Nov-25 01:33N 51°15' E 004°14'0 0.0
2016-Nov-25 00:33N 51°15' E 004°14'0 0.0
2016-Nov-24 23:30N 51°15' E 004°14'0 0.0
2016-Nov-24 22:33N 51°15' E 004°14'0 0.0
2016-Nov-24 21:33N 51°15' E 004°14'0 0.0
2016-Nov-24 20:33N 51°15' E 004°14'0 0.0
2016-Nov-24 19:33N 51°15' E 004°14'0 0.0
2016-Nov-24 18:33N 51°15' E 004°14'0 0.0
2016-Nov-24 17:33N 51°15' E 004°14'0 0.0
2016-Nov-24 16:33N 51°15' E 004°14'0 0.0
2016-Nov-24 15:33N 51°15' E 004°14'0 0.0
2016-Nov-24 14:30N 51°15' E 004°14'  
Track history (hours):
 
Tides and Currents Weather Stations Pressure Air Temp Water Temp Dewpoint Dewpoint Depression Visibility Wind Speed Wind Dir Waves Ship Positions

Pulpca

Last reported at 2016-Dec-04 13:33 UTC. Time now 2016-Dec-04 14:16 UTC.
Position N 53°57' E 009°14'.

Length 205 m; draft 7.5 m.

Type: Ship (hazmat cat D). MMSI: 245097000.

Date/timePositionNaut miles runAvg speedWind from/ knotsBaromVisibWave heightAir tempDewpointWater temp
2016-Dec-04 13:33N 53°57' E 009°14'3 3.4
2016-Dec-04 12:33N 53°54' E 009°10'3 2.6
2016-Dec-04 11:33N 53°53' E 009°06'4 3.8
2016-Dec-04 10:34N 53°51' E 009°00'1313.4
2016-Dec-04 09:33N 53°56' E 008°39'1716.9
2016-Dec-04 08:33N 53°60' E 008°11'10019.6
2016-Dec-04 03:26N 53°34' E 005°27'1719.0
2016-Dec-04 02:33N 53°28' E 005°01'1918.5
2016-Dec-04 01:33N 53°16' E 004°38'2019.6
2016-Dec-04 00:33N 52°59' E 004°22'1919.3
2016-Dec-03 23:33N 52°43' E 004°03'1919.3
2016-Dec-03 22:33N 52°29' E 003°41'3919.2
2016-Dec-03 20:30N 51°52' E 003°20'1516.0
2016-Dec-03 19:33N 51°38' E 003°10'1413.7
2016-Dec-03 18:33N 51°24' E 003°09'1919.2
2016-Dec-03 17:34N 51°26' E 003°39'1313.4
2016-Dec-03 16:33N 51°26' E 004°01'1211.6
2016-Dec-03 15:33N 51°20' E 004°16'3 2.7
2016-Dec-03 14:28N 51°17' E 004°15'0 0.0
2016-Dec-03 13:31N 51°17' E 004°15'2 1.7
2016-Dec-03 12:31N 51°15' E 004°14'0 0.0
2016-Dec-03 11:31N 51°15' E 004°14'0 0.0
2016-Dec-03 10:31N 51°15' E 004°14'0 0.0
2016-Dec-03 09:31N 51°15' E 004°14'0 0.0
2016-Dec-03 08:31N 51°15' E 004°14'0 0.0
2016-Dec-03 07:31N 51°15' E 004°14'0 0.0
2016-Dec-03 06:31N 51°15' E 004°14'0 0.0
2016-Dec-03 05:33N 51°15' E 004°14'2 1.8
2016-Dec-03 04:34N 51°16' E 004°17'6 6.0
2016-Dec-03 03:34N 51°22' E 004°14'1312.7
2016-Dec-03 02:33N 51°21' E 003°53'1919.1
2016-Dec-03 01:34N 51°25' E 003°23'1312.8
2016-Dec-03 00:33N 51°31' E 003°05'2222.1
2016-Dec-02 23:33N 51°52' E 003°16'22119.2
2016-Dec-02 12:04N 54°00' E 008°16'1018.9
2016-Dec-02 11:33N 53°58' E 008°31'1616.2
2016-Dec-02 10:34N 53°51' E 008°56'8 8.2
2016-Dec-02 09:33N 53°54' E 009°09'2 2.5
2016-Dec-02 08:33N 53°55' E 009°12'8 7.7
2016-Dec-02 07:33N 54°02' E 009°18'7 7.4
2016-Dec-02 06:33N 54°09' E 009°22'7 6.6
2016-Dec-02 05:28N 54°12' E 009°33'6 6.3
2016-Dec-02 04:31N 54°17' E 009°39'7 7.5
2016-Dec-02 03:33N 54°22' E 009°48'6 5.8
2016-Dec-02 02:33N 54°21' E 009°58'6 5.9
2016-Dec-02 01:33N 54°22' E 010°08'1 1.1
2016-Dec-02 00:33N 54°22' E 010°10'9 9.2
2016-Dec-01 23:33N 54°30' E 010°17'1212.3
2016-Dec-01 22:33N 54°35' E 010°37'1211.6
2016-Dec-01 21:33N 54°36' E 010°57'1110.6
2016-Dec-01 20:33N 54°35' E 011°15'1111.1
2016-Dec-01 19:33N 54°30' E 011°32'1211.4
2016-Dec-01 18:32N 54°27' E 011°52'1110.8
2016-Dec-01 17:33N 54°28' E 012°10'2712.8
2016-Dec-01 15:28N 54°51' E 012°32'1213.4
2016-Dec-01 14:33N 55°03' E 012°37'1413.9
2016-Dec-01 13:33N 55°17' E 012°37'1313.4
2016-Dec-01 12:33N 55°30' E 012°41'1312.8
2016-Dec-01 11:34N 55°43' E 012°41'1413.9
2016-Dec-01 10:34N 55°57' E 012°43'3 3.0
2016-Dec-01 09:33N 55°60' E 012°42'1212.1
2016-Dec-01 08:33N 55°48' E 012°43'1111.0
2016-Dec-01 07:33N 55°37' E 012°42'1313.3
2016-Dec-01 06:34N 55°23' E 012°41'1413.7
2016-Dec-01 05:33N 55°15' E 013°01'1817.1
2016-Dec-01 04:32N 55°13' E 013°31'1616.7
2016-Dec-01 03:33N 55°13' E 013°60'1615.9
2016-Dec-01 02:33N 55°19' E 014°25'1717.2
2016-Dec-01 01:33N 55°31' E 014°48'1717.3
2016-Dec-01 00:33N 55°39' E 015°14'  
2016-Nov-28 19:21N 59°39' E 022°53'6 0.7
2016-Nov-28 10:33N 59°41' E 023°05'34517.3
2016-Nov-27 14:33N 55°38' E 015°28'2120.6
2016-Nov-27 13:33N 55°28' E 014°56'2020.0
2016-Nov-27 12:33N 55°16' E 014°28'2019.7
2016-Nov-27 11:33N 55°11' E 013°54'3121.2
2016-Nov-27 10:05N 55°14' E 013°00'1120.3
2016-Nov-27 09:33N 55°17' E 012°42'1616.0
2016-Nov-27 08:34N 55°33' E 012°42'1515.3
2016-Nov-27 07:33N 55°48' E 012°44'2121.1
2016-Nov-27 06:33N 56°08' E 012°30'5021.6
2016-Nov-27 04:15N 56°52' E 011°46'1522.1
2016-Nov-27 03:33N 57°06' E 011°39'2222.0
2016-Nov-27 02:33N 57°27' E 011°24'2222.0
2016-Nov-27 01:33N 57°42' E 010°54'2221.3
2016-Nov-27 00:33N 57°45' E 010°14'17818.8
2016-Nov-26 15:04N 55°32' E 006°38'8120.7
2016-Nov-26 11:10N 54°23' E 005°26'1320.9
2016-Nov-26 10:33N 54°12' E 005°15'2120.8
2016-Nov-26 09:33N 53°53' E 005°01'2120.4
2016-Nov-26 08:33N 53°34' E 004°49'2020.1
2016-Nov-26 07:33N 53°15' E 004°35'2019.9
2016-Nov-26 06:34N 52°58' E 004°19'2019.7
2016-Nov-26 05:33N 52°42' E 004°00'2020.0
2016-Nov-26 04:33N 52°26' E 003°39'2020.4
2016-Nov-26 03:33N 52°08' E 003°26'2120.8
2016-Nov-26 02:33N 51°48' E 003°16'2020.5
2016-Nov-26 01:33N 51°29' E 003°03'1414.0
2016-Nov-26 00:33N 51°25' E 003°24'1717.3
2016-Nov-25 23:33N 51°21' E 003°51'10 9.7
2016-Nov-25 22:33N 51°22' E 004°06'7 7.4
2016-Nov-25 21:34N 51°17' E 004°15'2 2.1
2016-Nov-25 20:33N 51°15' E 004°14'0 0.2
2016-Nov-25 19:32N 51°15' E 004°14'0 0.0
2016-Nov-25 18:32N 51°15' E 004°14'0 0.0
2016-Nov-25 17:32N 51°15' E 004°14'0 0.0
2016-Nov-25 16:32N 51°15' E 004°14'0 0.0
2016-Nov-25 15:32N 51°15' E 004°14'0 0.0
2016-Nov-25 14:32N 51°15' E 004°14'0 0.0
2016-Nov-25 13:32N 51°15' E 004°14'0 0.0
2016-Nov-25 12:32N 51°15' E 004°14'0 0.0
2016-Nov-25 11:32N 51°15' E 004°14'0 0.0
2016-Nov-25 09:30N 51°15' E 004°14'0 0.0
2016-Nov-25 08:33N 51°15' E 004°14'0 0.0
2016-Nov-25 07:33N 51°15' E 004°14'0 0.0
2016-Nov-25 06:33N 51°15' E 004°14'0 0.0
2016-Nov-25 05:33N 51°15' E 004°14'0 0.0
2016-Nov-25 04:33N 51°15' E 004°14'0 0.0
2016-Nov-25 03:33N 51°15' E 004°14'0 0.0
2016-Nov-25 02:33N 51°15' E 004°14'0 0.0
2016-Nov-25 01:33N 51°15' E 004°14'0 0.0
2016-Nov-25 00:33N 51°15' E 004°14'0 0.0
2016-Nov-24 23:30N 51°15' E 004°14'0 0.0
2016-Nov-24 22:33N 51°15' E 004°14'0 0.0
2016-Nov-24 21:33N 51°15' E 004°14'0 0.0
2016-Nov-24 20:33N 51°15' E 004°14'0 0.0
2016-Nov-24 19:33N 51°15' E 004°14'0 0.0
2016-Nov-24 18:33N 51°15' E 004°14'0 0.0
2016-Nov-24 17:33N 51°15' E 004°14'0 0.0
2016-Nov-24 16:33N 51°15' E 004°14'0 0.0
2016-Nov-24 15:33N 51°15' E 004°14'0 0.0
2016-Nov-24 14:30N 51°15' E 004°14'  

Dump ship's entire track history